Time;durP1;ratioP1;P1;durP2;ratioP2;P2;SDS_P1;SDS_P2;PMS_P1;PMS_P2;Temp;Humidity;BMP_temperature;BMP_pressure;BME280_temperature;BME280_humidity;BME280_pressure;Samples;Min_cycle;Max_cycle;Signal;HPM_P1;HPM_P2
2021/12/20 00:01:14;;;;;;;10.05;4.85;;;4.40;99.90;;;;;;5035426;28;20132;-87
2021/12/20 00:03:40;;;;;;;10.40;5.40;;;4.40;99.90;;;;;;5016410;28;20036;-87
2021/12/20 00:06:05;;;;;;;9.70;4.13;;;4.40;99.90;;;;;;5015655;28;20029;-87
2021/12/20 00:08:31;;;;;;;9.43;4.78;;;4.40;99.90;;;;;;5032726;28;20565;-88
2021/12/20 00:10:56;;;;;;;11.05;5.65;;;4.40;99.90;;;;;;5033998;28;20083;-88
2021/12/20 00:13:23;;;;;;;8.05;4.57;;;4.40;99.90;;;;;;5019721;23;20036;-84
2021/12/20 00:15:48;;;;;;;8.23;4.38;;;4.40;99.90;;;;;;5034535;28;20145;-85
2021/12/20 00:18:14;;;;;;;11.93;4.88;;;4.40;99.90;;;;;;5048471;28;20033;-84
2021/12/20 00:20:40;;;;;;;12.18;5.68;;;4.40;99.90;;;;;;5004426;28;20124;-85
2021/12/20 00:23:06;;;;;;;9.63;4.80;;;4.40;99.90;;;;;;5053265;28;20025;-84
2021/12/20 00:25:32;;;;;;;13.05;5.78;;;4.40;99.90;;;;;;5039633;28;20370;-85
2021/12/20 00:27:58;;;;;;;8.15;4.65;;;4.40;99.90;;;;;;5064812;28;20028;-85
2021/12/20 00:30:23;;;;;;;9.40;4.65;;;4.40;99.90;;;;;;5052204;28;20078;-84
2021/12/20 00:32:49;;;;;;;13.57;5.75;;;4.40;99.90;;;;;;5058098;28;20066;-85
2021/12/20 00:35:18;;;;;;;11.75;5.40;;;4.40;99.90;;;;;;5056345;28;20068;-84
2021/12/20 00:40:27;;;;;;;10.75;5.65;;;4.40;99.90;;;;;;5085242;28;20442;-85
2021/12/20 00:42:59;;;;;;;15.20;7.38;;;4.40;99.90;;;;;;5040475;28;20032;-84
2021/12/20 00:45:31;;;;;;;12.73;6.13;;;4.40;99.90;;;;;;5089063;28;20502;-84
2021/12/20 00:47:57;;;;;;;14.55;5.70;;;4.30;99.90;;;;;;5070905;28;20401;-84
2021/12/20 00:50:26;;;;;;;12.45;5.68;;;4.30;99.90;;;;;;5061612;28;20020;-84
2021/12/20 00:52:53;;;;;;;12.15;6.05;;;4.30;99.90;;;;;;5058300;28;20535;-84
2021/12/20 00:55:20;;;;;;;13.32;5.97;;;4.30;99.90;;;;;;5057933;28;20028;-85
2021/12/20 00:57:47;;;;;;;11.73;5.15;;;4.30;99.90;;;;;;5041518;28;20119;-84
2021/12/20 01:00:17;;;;;;;14.07;6.10;;;4.30;99.90;;;;;;5026317;28;20123;-84
2021/12/20 01:02:43;;;;;;;12.30;6.22;;;4.30;99.90;;;;;;5071443;28;20037;-84
2021/12/20 01:05:10;;;;;;;12.95;6.43;;;4.30;99.90;;;;;;5039918;28;20039;-84
2021/12/20 01:07:35;;;;;;;13.65;6.43;;;4.30;99.90;;;;;;5041544;28;20035;-84
2021/12/20 01:10:06;;;;;;;10.77;5.45;;;4.30;99.90;;;;;;5051574;28;20017;-84
2021/12/20 01:12:42;;;;;;;11.88;6.03;;;4.30;99.90;;;;;;5039153;28;20396;-85
2021/12/20 01:15:15;;;;;;;14.25;6.38;;;4.30;99.90;;;;;;5074469;28;20025;-84
2021/12/20 01:17:41;;;;;;;12.02;6.03;;;4.30;99.90;;;;;;5069381;28;20063;-85
2021/12/20 01:20:08;;;;;;;15.25;5.28;;;4.30;99.90;;;;;;5087453;28;20491;-85
2021/12/20 01:22:33;;;;;;;12.07;5.78;;;4.30;99.90;;;;;;5077281;28;20032;-84
2021/12/20 01:24:59;;;;;;;13.10;6.00;;;4.30;99.90;;;;;;5074960;28;20046;-84
2021/12/20 01:27:25;;;;;;;10.02;5.05;;;4.30;99.90;;;;;;5056939;28;20028;-84
2021/12/20 01:29:50;;;;;;;12.45;5.78;;;4.30;99.90;;;;;;5040994;28;20155;-83
2021/12/20 01:32:16;;;;;;;10.75;5.65;;;4.30;99.90;;;;;;5040955;28;20064;-84
2021/12/20 01:34:42;;;;;;;9.38;4.72;;;4.30;99.90;;;;;;5065751;28;20031;-84
2021/12/20 01:37:08;;;;;;;10.88;5.20;;;4.30;99.90;;;;;;5077213;28;20111;-84
2021/12/20 01:39:33;;;;;;;10.73;5.90;;;4.30;99.90;;;;;;5052250;28;20020;-84
2021/12/20 01:42:00;;;;;;;10.32;5.60;;;4.20;99.90;;;;;;5060684;28;20040;-84
2021/12/20 01:44:26;;;;;;;10.27;5.05;;;4.20;99.90;;;;;;5063151;28;20544;-86
2021/12/20 01:46:52;;;;;;;15.05;5.57;;;4.30;99.90;;;;;;5056295;28;20116;-84
2021/12/20 01:49:18;;;;;;;8.15;4.35;;;4.20;99.90;;;;;;5035141;28;20485;-84
2021/12/20 01:54:24;;;;;;;9.40;5.05;;;4.20;99.90;;;;;;5038906;28;20497;-84
2021/12/20 01:56:50;;;;;;;10.50;5.03;;;4.20;99.90;;;;;;5058441;28;20025;-83
2021/12/20 01:59:16;;;;;;;10.65;5.40;;;4.20;99.90;;;;;;5084533;28;20028;-85
2021/12/20 02:01:43;;;;;;;12.27;5.47;;;4.20;99.90;;;;;;5020150;28;20035;-84
2021/12/20 02:04:10;;;;;;;11.10;5.70;;;4.20;99.90;;;;;;5023024;28;20033;-84
2021/12/20 02:06:39;;;;;;;11.48;5.72;;;4.30;99.90;;;;;;5022876;28;20040;-85
2021/12/20 02:09:14;;;;;;;9.98;5.15;;;4.20;99.90;;;;;;5040598;28;20476;-83
2021/12/20 02:11:42;;;;;;;8.70;4.72;;;4.20;99.90;;;;;;5024788;28;20025;-85
2021/12/20 02:14:09;;;;;;;11.82;5.93;;;4.20;99.90;;;;;;5040943;28;20021;-86
2021/12/20 02:16:36;;;;;;;10.10;5.32;;;4.20;99.90;;;;;;5025126;28;20120;-86
2021/12/20 02:19:08;;;;;;;10.57;5.40;;;4.20;99.90;;;;;;5056635;28;20482;-85
2021/12/20 02:21:35;;;;;;;11.15;5.50;;;4.20;99.90;;;;;;5052661;28;20186;-86
2021/12/20 02:24:01;;;;;;;11.88;5.72;;;4.20;99.90;;;;;;5057605;28;20673;-86
2021/12/20 02:26:26;;;;;;;13.05;6.00;;;4.20;99.90;;;;;;5040549;28;20033;-88
2021/12/20 02:28:55;;;;;;;13.25;5.65;;;4.20;99.90;;;;;;5095135;28;20392;-87
2021/12/20 02:39:18;;;;;;;12.25;5.85;;;4.20;99.90;;;;;;5055800;28;20497;-86
2021/12/20 02:41:44;;;;;;;12.90;6.93;;;4.20;99.90;;;;;;5053789;28;20032;-85
2021/12/20 02:44:17;;;;;;;12.15;5.88;;;4.20;99.90;;;;;;5077633;28;20032;-86
2021/12/20 02:49:20;;;;;;;13.77;5.90;;;4.10;99.90;;;;;;5059392;28;20040;-86
2021/12/20 02:51:50;;;;;;;13.15;6.00;;;4.10;99.90;;;;;;5041365;28;20032;-86
2021/12/20 02:54:17;;;;;;;12.60;5.57;;;4.10;99.90;;;;;;5071199;28;20566;-86
2021/12/20 02:56:43;;;;;;;14.07;6.43;;;4.10;99.90;;;;;;5044861;28;20028;-86
2021/12/20 02:59:10;;;;;;;13.30;6.85;;;4.10;99.90;;;;;;5026872;28;20111;-86
2021/12/20 03:01:38;;;;;;;12.80;6.05;;;4.10;99.90;;;;;;5050633;28;20032;-86
2021/12/20 03:04:04;;;;;;;13.20;7.10;;;4.10;99.90;;;;;;5045382;28;20134;-86
2021/12/20 03:06:55;;;;;;;15.27;6.47;;;4.10;99.90;;;;;;5062002;28;20100;-86
2021/12/20 03:09:27;;;;;;;15.20;5.93;;;4.10;99.90;;;;;;5061782;28;20025;-86
2021/12/20 03:11:55;;;;;;;14.75;6.50;;;4.10;99.90;;;;;;5026673;28;20037;-86
2021/12/20 03:14:32;;;;;;;15.05;6.55;;;4.10;99.90;;;;;;5036875;28;20037;-86
2021/12/20 03:16:59;;;;;;;13.10;6.05;;;4.10;99.90;;;;;;5042796;28;20033;-85
2021/12/20 03:19:25;;;;;;;12.07;5.90;;;4.00;99.90;;;;;;5043021;28;20028;-86
2021/12/20 03:21:51;;;;;;;12.02;6.03;;;4.00;99.90;;;;;;5076986;28;20025;-86
2021/12/20 03:24:17;;;;;;;14.88;6.97;;;4.10;99.90;;;;;;5042826;28;20043;-86
2021/12/20 03:26:43;;;;;;;12.55;5.88;;;4.10;99.90;;;;;;5059537;28;20029;-86
2021/12/20 03:29:09;;;;;;;13.32;6.78;;;4.10;99.90;;;;;;5060433;28;20028;-86
2021/12/20 03:31:34;;;;;;;14.82;5.90;;;4.10;99.90;;;;;;5045620;28;20047;-86
2021/12/20 03:34:05;;;;;;;10.60;5.47;;;4.10;99.90;;;;;;5026412;28;20044;-86
2021/12/20 03:36:31;;;;;;;12.07;6.22;;;4.10;99.90;;;;;;5066201;28;20082;-86
2021/12/20 03:38:57;;;;;;;13.10;6.05;;;4.10;99.90;;;;;;5076420;28;20516;-86
2021/12/20 03:41:23;;;;;;;14.70;6.55;;;4.00;99.90;;;;;;5042279;28;20032;-86
2021/12/20 03:43:49;;;;;;;11.70;5.45;;;4.10;99.90;;;;;;5059431;28;20036;-87
2021/12/20 03:46:15;;;;;;;13.80;6.63;;;4.00;99.90;;;;;;5076087;28;20032;-86
2021/12/20 03:48:41;;;;;;;13.85;6.22;;;4.00;99.90;;;;;;5059815;28;20018;-86
2021/12/20 03:51:07;;;;;;;12.80;6.22;;;4.00;99.90;;;;;;5045275;28;20078;-86
2021/12/20 03:53:35;;;;;;;13.40;6.32;;;4.00;99.90;;;;;;5097724;28;20479;-86
2021/12/20 03:56:04;;;;;;;11.98;5.32;;;4.00;99.90;;;;;;5065110;28;20774;-86
2021/12/20 03:58:30;;;;;;;14.52;6.18;;;4.00;99.90;;;;;;5062296;28;20050;-86
2021/12/20 04:00:58;;;;;;;18.95;6.43;;;4.00;99.90;;;;;;5044421;28;20028;-86
2021/12/20 04:03:25;;;;;;;15.90;5.82;;;4.00;99.90;;;;;;5043178;28;20116;-86
2021/12/20 04:05:51;;;;;;;14.35;6.32;;;4.00;99.90;;;;;;5044130;28;20032;-86
2021/12/20 04:08:17;;;;;;;12.38;6.35;;;4.00;99.90;;;;;;5060965;28;20025;-86
2021/12/20 04:10:42;;;;;;;14.55;6.30;;;4.00;99.90;;;;;;5061878;28;20024;-86
2021/12/20 04:13:09;;;;;;;12.55;4.85;;;4.00;99.90;;;;;;5072636;28;20031;-86
2021/12/20 04:15:36;;;;;;;12.15;4.53;;;4.00;99.90;;;;;;5060087;28;20067;-87
2021/12/20 04:18:01;;;;;;;11.10;4.95;;;4.00;99.90;;;;;;5060618;28;20417;-87
2021/12/20 04:20:27;;;;;;;8.68;4.25;;;4.00;99.90;;;;;;5058515;28;20032;-87
2021/12/20 04:22:53;;;;;;;10.73;4.40;;;4.00;99.90;;;;;;5050795;28;20025;-86
2021/12/20 04:25:18;;;;;;;7.63;3.42;;;4.00;99.90;;;;;;5041926;28;20040;-86
2021/12/20 04:27:44;;;;;;;7.13;3.35;;;4.00;99.90;;;;;;5031179;28;20036;-86
2021/12/20 04:30:11;;;;;;;6.28;2.90;;;4.00;99.90;;;;;;5037566;28;20441;-86
2021/12/20 04:32:38;;;;;;;9.75;3.08;;;4.10;99.90;;;;;;5052632;28;20327;-86
2021/12/20 04:35:05;;;;;;;7.80;3.47;;;4.10;99.90;;;;;;5057540;28;20504;-86
2021/12/20 04:37:30;;;;;;;6.90;2.70;;;4.10;99.90;;;;;;5037891;28;20048;-86
2021/12/20 04:40:04;;;;;;;7.75;2.88;;;4.10;99.90;;;;;;5056294;28;20025;-86
2021/12/20 04:42:33;;;;;;;6.20;2.65;;;4.10;99.90;;;;;;5054851;28;20500;-86
2021/12/20 04:44:58;;;;;;;6.60;2.13;;;4.10;99.90;;;;;;5075148;28;20044;-86
2021/12/20 04:47:24;;;;;;;6.80;2.70;;;4.10;99.90;;;;;;5035227;28;20568;-86
2021/12/20 04:49:49;;;;;;;7.03;2.78;;;4.10;99.90;;;;;;5028324;28;20036;-86
2021/12/20 04:52:15;;;;;;;5.90;2.40;;;4.10;99.90;;;;;;5060948;28;20255;-85
2021/12/20 04:54:41;;;;;;;7.15;2.60;;;4.10;99.90;;;;;;5040595;28;20123;-86
2021/12/20 04:57:06;;;;;;;5.65;2.88;;;4.10;99.90;;;;;;5038040;28;20066;-86
2021/12/20 04:59:32;;;;;;;6.97;2.28;;;4.10;99.90;;;;;;5048475;28;20032;-86
2021/12/20 05:01:58;;;;;;;6.38;2.30;;;4.10;99.90;;;;;;5033087;28;20039;-86
2021/12/20 05:04:23;;;;;;;11.88;2.85;;;4.10;99.90;;;;;;5035198;28;20055;-86
2021/12/20 05:06:50;;;;;;;6.07;2.53;;;4.10;99.90;;;;;;5035099;28;20054;-86
2021/12/20 05:09:17;;;;;;;5.88;2.58;;;4.10;99.90;;;;;;5021057;28;20035;-86
2021/12/20 05:11:50;;;;;;;4.95;2.40;;;4.00;99.90;;;;;;5035353;28;20033;-86
2021/12/20 05:14:18;;;;;;;8.02;2.15;;;4.00;99.90;;;;;;5052412;28;20109;-86
2021/12/20 05:16:44;;;;;;;7.40;2.47;;;4.00;99.90;;;;;;5053595;28;20063;-86
2021/12/20 05:19:09;;;;;;;5.95;2.58;;;4.00;99.90;;;;;;5073386;28;20113;-86
2021/12/20 05:21:35;;;;;;;11.07;2.67;;;4.00;99.90;;;;;;5071866;28;20035;-86
2021/12/20 05:24:01;;;;;;;5.10;1.98;;;4.00;99.90;;;;;;5030485;28;20125;-86
2021/12/20 05:26:26;;;;;;;5.05;1.80;;;4.00;99.90;;;;;;5038544;28;20043;-86
2021/12/20 05:28:55;;;;;;;12.95;2.00;;;4.00;99.90;;;;;;5073315;28;20051;-86
2021/12/20 05:31:22;;;;;;;3.53;1.92;;;4.00;99.90;;;;;;5056285;28;20031;-86
2021/12/20 05:33:47;;;;;;;4.10;1.70;;;4.00;99.90;;;;;;5039510;28;20497;-86
2021/12/20 05:36:13;;;;;;;5.13;2.08;;;4.00;99.90;;;;;;5074928;28;20024;-86
2021/12/20 05:38:38;;;;;;;5.35;2.40;;;4.00;99.90;;;;;;5038855;28;20408;-86
2021/12/20 05:41:04;;;;;;;5.30;1.67;;;4.00;99.90;;;;;;5038920;28;20056;-87
2021/12/20 05:43:30;;;;;;;5.10;1.52;;;4.00;99.90;;;;;;5056287;28;20039;-86
2021/12/20 05:45:56;;;;;;;5.78;1.30;;;4.00;99.90;;;;;;5056720;28;20035;-86
2021/12/20 05:48:21;;;;;;;9.90;1.50;;;4.00;99.90;;;;;;5059142;28;20480;-86
2021/12/20 05:50:47;;;;;;;4.70;1.42;;;4.00;99.90;;;;;;5055717;28;20065;-86
2021/12/20 05:53:13;;;;;;;1.83;1.08;;;4.00;99.90;;;;;;5057264;28;20058;-87
2021/12/20 05:55:38;;;;;;;6.40;1.70;;;4.00;99.90;;;;;;5055129;28;20029;-86
2021/12/20 05:58:07;;;;;;;6.20;1.50;;;4.00;99.90;;;;;;5056425;28;20071;-87
2021/12/20 06:00:32;;;;;;;8.43;1.60;;;4.00;99.90;;;;;;5056795;28;20083;-86
2021/12/20 06:02:58;;;;;;;3.97;1.73;;;4.00;99.90;;;;;;5039663;28;20072;-86
2021/12/20 06:05:23;;;;;;;4.22;1.55;;;4.00;99.90;;;;;;5055107;28;20088;-86
2021/12/20 06:07:49;;;;;;;3.22;1.40;;;4.00;99.90;;;;;;5055147;28;20417;-86
2021/12/20 06:10:18;;;;;;;7.65;1.58;;;4.00;99.90;;;;;;5056914;28;20085;-86
2021/12/20 06:12:44;;;;;;;7.03;1.95;;;4.00;99.90;;;;;;5092960;22;20100;-85
2021/12/20 06:15:12;;;;;;;8.00;1.60;;;4.00;99.90;;;;;;5040545;28;20040;-84
2021/12/20 06:17:38;;;;;;;6.28;1.88;;;4.00;99.90;;;;;;5025066;28;20055;-85
2021/12/20 06:20:07;;;;;;;3.42;1.92;;;4.00;99.90;;;;;;5044956;28;20120;-84
2021/12/20 06:22:33;;;;;;;6.05;1.63;;;4.00;99.90;;;;;;5074013;28;20029;-86
2021/12/20 06:24:59;;;;;;;6.47;1.83;;;4.00;99.90;;;;;;5038775;28;20101;-85
2021/12/20 06:27:25;;;;;;;5.13;1.42;;;4.00;99.90;;;;;;5047198;28;20033;-85
2021/12/20 06:29:50;;;;;;;6.40;1.40;;;4.00;99.90;;;;;;5017549;28;20392;-85
2021/12/20 06:32:16;;;;;;;5.85;1.58;;;4.00;99.90;;;;;;5033642;28;20439;-84
2021/12/20 06:34:42;;;;;;;4.88;1.52;;;4.00;99.90;;;;;;5067963;28;20071;-85
2021/12/20 06:37:08;;;;;;;7.05;1.65;;;4.00;99.90;;;;;;5020865;28;20033;-86
2021/12/20 06:39:34;;;;;;;2.08;1.13;;;4.00;99.90;;;;;;5029137;28;20101;-85
2021/12/20 06:41:59;;;;;;;6.05;1.40;;;4.00;99.90;;;;;;5033291;28;20636;-85
2021/12/20 06:44:26;;;;;;;3.33;1.38;;;4.00;99.90;;;;;;5040495;28;20033;-86
2021/12/20 06:46:52;;;;;;;2.33;1.52;;;4.00;99.90;;;;;;5042983;28;20025;-85
2021/12/20 06:49:17;;;;;;;9.95;2.50;;;4.00;99.90;;;;;;5043106;28;20032;-85
2021/12/20 06:51:44;;;;;;;4.55;1.50;;;4.00;99.90;;;;;;5007489;28;20404;-86
2021/12/20 06:54:13;;;;;;;5.80;1.55;;;4.00;99.90;;;;;;5007487;28;20110;-85
2021/12/20 06:56:40;;;;;;;2.88;1.58;;;4.00;99.90;;;;;;5038198;28;20033;-86
2021/12/20 06:59:06;;;;;;;6.95;2.08;;;4.00;99.90;;;;;;5065424;28;20107;-86
2021/12/20 07:01:32;;;;;;;4.13;1.95;;;4.00;99.90;;;;;;5041126;28;20040;-84
2021/12/20 07:03:58;;;;;;;5.82;2.35;;;4.00;99.90;;;;;;5028891;28;20488;-84
2021/12/20 07:06:24;;;;;;;6.28;2.30;;;3.90;99.90;;;;;;5049283;28;20028;-84
2021/12/20 07:08:52;;;;;;;5.13;2.25;;;3.90;99.90;;;;;;5038925;28;20086;-84
2021/12/20 07:11:18;;;;;;;8.05;1.80;;;3.90;99.90;;;;;;5052371;28;20025;-84
2021/12/20 07:13:43;;;;;;;6.43;2.05;;;3.90;99.90;;;;;;5019788;28;20329;-85
2021/12/20 07:16:13;;;;;;;4.95;1.70;;;3.90;99.90;;;;;;5027179;28;20029;-85
2021/12/20 07:18:39;;;;;;;6.27;2.23;;;3.90;99.90;;;;;;5072158;28;20112;-84
2021/12/20 07:21:05;;;;;;;15.93;2.10;;;3.90;99.90;;;;;;5053306;28;20602;-82
2021/12/20 07:23:34;;;;;;;10.80;2.13;;;3.80;99.90;;;;;;5054829;28;20822;-83
2021/12/20 07:26:04;;;;;;;8.27;1.92;;;3.90;99.90;;;;;;5017595;28;20090;-83
2021/12/20 07:28:30;;;;;;;6.28;1.92;;;3.80;99.90;;;;;;5063458;28;20059;-83
2021/12/20 07:30:56;;;;;;;6.63;1.70;;;3.80;99.90;;;;;;5052884;28;20052;-85
2021/12/20 07:33:21;;;;;;;5.72;1.90;;;3.80;99.90;;;;;;5053403;28;20028;-83
2021/12/20 07:35:48;;;;;;;4.88;1.70;;;3.80;99.90;;;;;;5036810;28;20193;-83
2021/12/20 07:38:15;;;;;;;9.55;2.00;;;3.90;99.90;;;;;;5016982;28;20495;-84
2021/12/20 07:40:51;;;;;;;5.10;1.42;;;3.90;99.90;;;;;;5021509;28;20459;-84
2021/12/20 07:43:21;;;;;;;3.90;1.60;;;3.90;99.90;;;;;;5031066;28;20447;-84
2021/12/20 07:45:47;;;;;;;7.32;1.85;;;3.90;99.90;;;;;;5026115;28;20081;-84
2021/12/20 07:48:15;;;;;;;6.68;1.95;;;3.90;99.90;;;;;;5069719;28;20495;-83
2021/12/20 07:50:41;;;;;;;5.32;2.20;;;3.90;99.90;;;;;;5066688;28;20067;-84
2021/12/20 07:53:07;;;;;;;7.55;2.33;;;3.90;99.90;;;;;;5033148;28;20527;-85
2021/12/20 07:55:32;;;;;;;10.40;2.05;;;3.90;99.90;;;;;;5020110;28;20024;-84
2021/12/20 07:57:59;;;;;;;7.80;2.17;;;4.00;99.90;;;;;;5049908;28;20047;-85
2021/12/20 08:00:25;;;;;;;5.40;1.88;;;4.00;99.90;;;;;;5036392;28;20041;-86
2021/12/20 08:02:51;;;;;;;5.80;2.28;;;4.00;99.90;;;;;;5019587;28;20036;-84
2021/12/20 08:05:19;;;;;;;11.45;2.22;;;4.00;99.90;;;;;;5069476;28;20169;-84
2021/12/20 08:07:50;;;;;;;6.43;2.65;;;4.00;99.90;;;;;;5045173;28;20120;-84
2021/12/20 08:10:17;;;;;;;8.30;1.90;;;4.00;99.90;;;;;;5071093;28;20074;-84
2021/12/20 08:12:48;;;;;;;7.00;2.33;;;4.00;99.90;;;;;;5057640;28;20025;-85
2021/12/20 08:15:18;;;;;;;8.35;2.35;;;4.00;99.90;;;;;;5031319;28;20033;-84
2021/12/20 08:17:44;;;;;;;7.07;1.73;;;4.10;99.90;;;;;;5033182;28;20492;-84
2021/12/20 08:20:11;;;;;;;11.20;2.20;;;4.10;99.90;;;;;;4980569;28;20496;-84
2021/12/20 08:22:39;;;;;;;7.57;2.33;;;4.10;99.90;;;;;;5039469;28;20025;-83
2021/12/20 08:25:06;;;;;;;9.70;2.70;;;4.20;99.90;;;;;;5063332;28;20025;-84
2021/12/20 08:27:32;;;;;;;8.35;2.47;;;4.20;99.90;;;;;;5068968;28;20021;-84
2021/12/20 08:29:58;;;;;;;5.80;2.20;;;4.20;99.90;;;;;;5068829;28;20017;-84
2021/12/20 08:32:25;;;;;;;7.55;2.80;;;4.20;99.90;;;;;;5068521;28;20035;-84
2021/12/20 08:34:51;;;;;;;10.55;2.92;;;4.30;99.90;;;;;;5063328;28;20052;-84
2021/12/20 08:37:16;;;;;;;5.88;1.98;;;4.30;99.90;;;;;;5016781;28;20033;-84
2021/12/20 08:39:42;;;;;;;11.90;2.60;;;4.40;99.90;;;;;;5037730;28;20075;-84
2021/12/20 08:42:08;;;;;;;8.18;2.88;;;4.40;99.90;;;;;;5036034;28;20037;-85
2021/12/20 08:44:34;;;;;;;8.13;2.80;;;4.40;99.90;;;;;;5009541;28;20513;-84
2021/12/20 08:47:01;;;;;;;10.00;2.60;;;4.40;99.90;;;;;;5050163;28;20029;-85
2021/12/20 08:49:27;;;;;;;9.90;2.67;;;4.50;99.90;;;;;;5026508;28;20195;-85
2021/12/20 08:51:55;;;;;;;11.88;2.65;;;4.50;99.90;;;;;;5056658;28;20056;-85
2021/12/20 08:54:24;;;;;;;7.07;2.60;;;4.50;99.90;;;;;;5060953;28;20028;-85
2021/12/20 08:56:49;;;;;;;7.18;3.10;;;4.60;99.90;;;;;;5036923;28;20051;-85
2021/12/20 08:59:15;;;;;;;7.40;1.92;;;4.60;99.90;;;;;;5020676;28;20029;-84
2021/12/20 09:01:41;;;;;;;9.40;2.88;;;4.60;99.90;;;;;;5004269;28;20036;-85
2021/12/20 09:04:08;;;;;;;7.95;2.22;;;4.60;99.90;;;;;;5045394;28;20029;-85
2021/12/20 09:06:38;;;;;;;16.50;2.78;;;4.60;99.90;;;;;;5051301;28;20029;-85
2021/12/20 09:09:09;;;;;;;10.75;3.15;;;4.60;99.90;;;;;;5039057;28;20068;-85
2021/12/20 09:11:36;;;;;;;21.38;3.20;;;4.60;99.90;;;;;;5076239;28;20062;-86
2021/12/20 09:14:02;;;;;;;7.47;3.08;;;4.70;99.90;;;;;;5049715;28;20033;-85
2021/12/20 09:16:31;;;;;;;16.90;3.25;;;4.70;99.90;;;;;;5007718;28;20033;-85
2021/12/20 09:18:57;;;;;;;4.90;2.10;;;4.70;99.90;;;;;;5005084;28;20124;-85
2021/12/20 09:21:23;;;;;;;7.30;2.28;;;4.70;99.90;;;;;;5007161;28;20049;-85
2021/12/20 09:23:49;;;;;;;13.45;2.80;;;4.70;99.90;;;;;;5023814;28;20026;-85
2021/12/20 09:26:19;;;;;;;21.27;3.13;;;4.80;99.90;;;;;;5023514;28;20025;-86
2021/12/20 09:28:44;;;;;;;8.23;1.98;;;4.80;99.90;;;;;;5006941;28;20029;-85
2021/12/20 09:31:10;;;;;;;12.07;2.53;;;4.80;99.90;;;;;;5007553;28;20539;-85
2021/12/20 09:33:36;;;;;;;10.70;2.47;;;4.90;99.90;;;;;;5007510;28;20025;-85
2021/12/20 09:36:03;;;;;;;10.90;2.45;;;4.80;99.90;;;;;;5005192;28;20106;-86
2021/12/20 09:38:31;;;;;;;8.88;2.78;;;4.80;99.90;;;;;;5019562;28;20025;-85
2021/12/20 09:43:54;;;;;;;17.33;2.28;;;4.80;99.90;;;;;;5004734;28;20112;-85
2021/12/20 09:46:24;;;;;;;7.63;1.98;;;4.80;99.90;;;;;;5017683;28;20025;-85
2021/12/20 09:48:50;;;;;;;11.15;3.28;;;4.90;99.90;;;;;;5002086;28;20029;-85
2021/12/20 09:51:17;;;;;;;11.90;1.65;;;4.90;99.90;;;;;;5001529;28;20030;-85
2021/12/20 09:53:43;;;;;;;10.45;2.00;;;4.90;99.90;;;;;;4985812;28;20030;-86
2021/12/20 09:56:09;;;;;;;6.88;1.90;;;5.00;99.90;;;;;;5019487;28;20034;-85
2021/12/20 09:58:38;;;;;;;8.27;2.15;;;4.90;99.90;;;;;;5034253;28;20108;-85
2021/12/20 10:01:07;;;;;;;13.65;1.88;;;5.00;99.90;;;;;;5001513;28;20037;-85
2021/12/20 10:03:34;;;;;;;19.60;3.10;;;5.00;99.90;;;;;;4985319;28;20029;-85
2021/12/20 10:06:00;;;;;;;8.60;1.70;;;5.00;99.90;;;;;;5001068;28;20040;-85
2021/12/20 10:08:37;;;;;;;10.85;1.60;;;5.10;99.90;;;;;;5000607;28;20025;-86
2021/12/20 10:11:06;;;;;;;4.60;1.60;;;5.10;99.90;;;;;;5001485;28;20030;-85
2021/12/20 10:13:37;;;;;;;9.05;1.88;;;5.20;99.90;;;;;;4984858;28;20068;-85
2021/12/20 10:16:13;;;;;;;14.40;2.60;;;5.20;99.90;;;;;;5000718;28;20391;-85
2021/12/20 10:18:39;;;;;;;12.10;1.92;;;5.30;99.90;;;;;;5017065;28;20025;-86
2021/12/20 10:21:07;;;;;;;12.27;1.90;;;5.30;99.90;;;;;;5016855;28;20036;-85
2021/12/20 10:23:41;;;;;;;12.80;2.17;;;5.20;99.90;;;;;;4984642;28;20025;-85
2021/12/20 10:26:21;;;;;;;7.15;1.60;;;5.20;99.90;;;;;;5016347;28;20030;-85
2021/12/20 10:28:51;;;;;;;10.57;1.95;;;5.20;99.80;;;;;;5001152;28;20033;-85
2021/12/20 10:31:19;;;;;;;8.98;2.22;;;5.20;99.90;;;;;;4999956;28;20321;-86
2021/12/20 10:34:05;;;;;;;8.95;1.83;;;5.20;99.90;;;;;;5016603;28;20033;-85
2021/12/20 10:36:32;;;;;;;11.43;1.95;;;5.20;99.90;;;;;;5015838;28;20447;-85
2021/12/20 10:39:00;;;;;;;17.35;2.03;;;5.10;99.90;;;;;;4984332;28;20490;-85
2021/12/20 10:41:39;;;;;;;22.60;2.38;;;5.10;99.90;;;;;;5015961;28;20025;-85
2021/12/20 10:44:24;;;;;;;10.43;2.08;;;5.10;99.90;;;;;;5016306;28;20025;-85
2021/12/20 10:46:58;;;;;;;9.77;1.70;;;5.00;99.90;;;;;;5001256;28;20061;-85
2021/12/20 10:49:31;;;;;;;11.18;1.58;;;5.10;99.90;;;;;;4983941;28;20075;-85
2021/12/20 10:51:59;;;;;;;13.27;2.40;;;5.00;99.90;;;;;;5032553;28;20107;-85
2021/12/20 10:54:31;;;;;;;6.43;1.70;;;5.00;99.90;;;;;;5015591;28;20025;-84
2021/12/20 10:57:05;;;;;;;16.73;2.25;;;5.00;99.90;;;;;;5000147;28;20500;-85
2021/12/20 10:59:37;;;;;;;13.48;1.90;;;4.90;99.90;;;;;;4999423;28;20029;-85
2021/12/20 11:04:51;;;;;;;12.35;1.83;;;4.70;99.90;;;;;;5017716;28;20041;-85
2021/12/20 11:09:52;;;;;;;6.28;1.38;;;4.70;99.50;;;;;;5033664;28;20052;-85
2021/12/20 11:12:29;;;;;;;8.05;1.45;;;4.70;99.80;;;;;;5015549;28;20488;-85
2021/12/20 11:15:00;;;;;;;6.43;1.90;;;4.70;99.90;;;;;;5015480;28;20026;-84
2021/12/20 11:17:28;;;;;;;8.90;1.67;;;4.70;99.90;;;;;;4983833;28;20140;-85
2021/12/20 11:19:55;;;;;;;9.77;2.00;;;4.70;99.90;;;;;;4999224;28;20037;-85
2021/12/20 11:22:30;;;;;;;14.60;2.00;;;4.70;99.90;;;;;;4998390;28;20029;-85
2021/12/20 11:24:58;;;;;;;15.25;2.40;;;4.80;99.90;;;;;;4983269;28;20037;-84
2021/12/20 11:27:42;;;;;;;13.93;2.20;;;4.80;99.90;;;;;;4998581;28;20029;-85
2021/12/20 11:30:11;;;;;;;12.82;1.67;;;4.80;99.90;;;;;;5014962;28;20048;-85
2021/12/20 11:32:39;;;;;;;12.32;1.85;;;4.80;99.90;;;;;;4998813;28;20396;-85
2021/12/20 11:35:06;;;;;;;12.70;2.60;;;4.80;99.90;;;;;;4983022;28;20508;-84
2021/12/20 11:37:32;;;;;;;14.57;2.38;;;4.80;99.90;;;;;;5014849;28;20494;-85
2021/12/20 11:39:59;;;;;;;17.20;2.53;;;4.80;99.90;;;;;;4997872;28;20168;-84
2021/12/20 11:42:26;;;;;;;17.20;2.13;;;4.80;99.90;;;;;;5014826;28;20076;-85
2021/12/20 11:44:57;;;;;;;10.18;2.30;;;4.80;99.80;;;;;;4998184;28;20403;-85
2021/12/20 11:47:32;;;;;;;15.02;1.60;;;4.70;99.90;;;;;;4982601;28;20033;-85
2021/12/20 11:50:19;;;;;;;11.60;2.20;;;4.70;99.90;;;;;;5014881;28;20029;-84
2021/12/20 11:52:47;;;;;;;6.82;1.67;;;4.80;99.90;;;;;;5014736;28;20029;-84
2021/12/20 11:55:25;;;;;;;18.25;2.17;;;4.80;99.90;;;;;;4981961;28;20029;-85
2021/12/20 11:58:02;;;;;;;11.73;1.77;;;4.80;98.80;;;;;;4998423;28;20029;-86
2021/12/20 12:00:30;;;;;;;29.30;2.42;;;4.80;98.80;;;;;;5014982;28;20042;-85
2021/12/20 12:02:58;;;;;;;13.07;1.88;;;4.70;99.30;;;;;;5014233;28;20025;-84
2021/12/20 12:05:37;;;;;;;10.88;2.35;;;4.70;99.60;;;;;;4997600;28;20028;-85
2021/12/20 12:08:29;;;;;;;13.63;1.60;;;4.70;99.50;;;;;;5014344;28;20021;-84
2021/12/20 12:10:58;;;;;;;13.55;2.05;;;4.60;99.90;;;;;;5014312;28;20032;-85
2021/12/20 12:13:27;;;;;;;6.40;1.52;;;4.70;99.40;;;;;;5027544;23;20524;-85
2021/12/20 12:16:05;;;;;;;5.90;1.55;;;4.70;98.80;;;;;;5053270;28;20025;-85
2021/12/20 12:18:46;;;;;;;8.15;1.63;;;4.80;98.70;;;;;;5056170;28;20021;-85
2021/12/20 12:21:31;;;;;;;8.63;1.95;;;4.80;98.20;;;;;;5022657;28;20025;-85
2021/12/20 12:23:57;;;;;;;10.82;2.47;;;4.80;98.50;;;;;;5033580;28;20459;-85
2021/12/20 12:26:36;;;;;;;13.88;1.40;;;4.80;97.60;;;;;;5016936;28;20037;-85
2021/12/20 12:29:03;;;;;;;9.70;1.95;;;4.70;96.20;;;;;;5017306;28;20040;-85
2021/12/20 12:31:49;;;;;;;14.25;1.65;;;4.70;96.50;;;;;;5017502;28;20514;-85
2021/12/20 12:34:15;;;;;;;15.80;2.00;;;4.60;96.40;;;;;;5032902;28;20021;-85
2021/12/20 12:36:42;;;;;;;12.38;2.97;;;4.60;96.70;;;;;;5033454;28;20063;-85
2021/12/20 12:39:27;;;;;;;5.88;1.10;;;4.50;96.70;;;;;;5017489;28;20088;-85
2021/12/20 12:42:01;;;;;;;10.02;1.65;;;4.60;96.80;;;;;;5034539;28;20024;-85
2021/12/20 12:44:34;;;;;;;12.52;1.65;;;4.60;96.10;;;;;;5018481;28;20033;-85
2021/12/20 12:47:07;;;;;;;8.40;1.33;;;4.60;94.70;;;;;;5018498;28;20072;-85
2021/12/20 12:49:37;;;;;;;5.57;1.75;;;4.50;95.60;;;;;;5040683;28;20097;-85
2021/12/20 12:52:29;;;;;;;12.10;2.10;;;4.50;95.00;;;;;;5024261;28;20028;-85
2021/12/20 12:55:02;;;;;;;6.68;1.63;;;4.50;96.20;;;;;;5032323;28;20028;-85
2021/12/20 12:57:30;;;;;;;5.13;1.05;;;4.60;96.10;;;;;;5032047;28;20446;-85
2021/12/20 13:00:03;;;;;;;11.48;2.15;;;4.60;96.40;;;;;;4999814;28;20040;-85
2021/12/20 13:02:29;;;;;;;3.65;1.40;;;4.60;95.90;;;;;;5032348;28;20032;-85
2021/12/20 13:05:06;;;;;;;11.90;2.38;;;4.60;96.70;;;;;;5031971;28;20029;-85
2021/12/20 13:07:36;;;;;;;6.75;1.50;;;4.60;96.70;;;;;;5031902;28;20025;-84
2021/12/20 13:10:13;;;;;;;17.23;2.47;;;4.60;96.90;;;;;;5016148;28;20033;-84
2021/12/20 13:15:19;;;;;;;9.68;1.75;;;4.50;97.20;;;;;;5050060;28;20489;-85
2021/12/20 13:17:48;;;;;;;9.18;1.90;;;4.50;97.00;;;;;;5016690;28;20495;-85
2021/12/20 13:20:24;;;;;;;16.13;1.50;;;4.50;97.10;;;;;;4999631;28;20053;-85
2021/12/20 13:22:58;;;;;;;12.55;2.03;;;4.50;98.00;;;;;;5032030;28;20026;-85
2021/12/20 13:25:36;;;;;;;11.80;1.35;;;4.50;97.30;;;;;;5015557;28;20116;-85